Time;durP1;ratioP1;P1;durP2;ratioP2;P2;SDS_P1;SDS_P2;PMS_P1;PMS_P2;Temp;Humidity;BMP_temperature;BMP_pressure;BME280_temperature;BME280_humidity;BME280_pressure;Samples;Min_cycle;Max_cycle;Signal;HPM_P1;HPM_P2
2022/01/02 00:00:15;;;;;;;13.68;2.42;;;;;;;21.64;57.59;100012.00;7311953;19;129507;-38
2022/01/02 00:02:42;;;;;;;9.15;2.03;;;;;;;21.60;57.69;100002.72;7314529;19;129681;-35
2022/01/02 00:05:09;;;;;;;;;;;;;;;21.55;59.74;99977.94;7313661;19;129518;-34
2022/01/02 00:07:42;;;;;;;6.38;1.55;;;;;;;21.62;58.89;99998.19;7316575;19;131569;-38
2022/01/02 00:10:08;;;;;;;15.18;2.78;;;;;;;21.61;57.91;99993.09;7313064;19;129148;-38
2022/01/02 00:12:35;;;;;;;14.02;2.45;;;;;;;21.57;58.31;99992.53;7315114;19;130659;-35
2022/01/02 00:15:04;;;;;;;14.15;2.35;;;;;;;21.54;58.46;99990.19;7312421;19;130871;-38
2022/01/02 00:17:30;;;;;;;14.23;2.30;;;;;;;21.52;58.42;99955.47;7314902;19;129187;-38
2022/01/02 00:19:58;;;;;;;13.70;2.53;;;;;;;21.58;58.41;99969.81;7314526;19;129758;-36
2022/01/02 00:22:32;;;;;;;14.00;2.80;;;;;;;21.61;57.62;99959.91;7313917;19;130829;-38
2022/01/02 00:24:59;;;;;;;16.45;2.75;;;;;;;21.54;58.10;99957.94;7309975;19;129841;-34
2022/01/02 00:27:26;;;;;;;;;;;;;;;21.57;59.08;99961.13;7310665;19;130451;-39
2022/01/02 00:29:52;;;;;;;12.55;2.60;;;;;;;21.51;57.94;99937.28;7310922;19;129018;-35
2022/01/02 00:32:20;;;;;;;12.90;2.40;;;;;;;21.56;58.06;99945.56;7314349;19;134019;-35
2022/01/02 00:34:50;;;;;;;14.68;3.13;;;;;;;21.58;59.08;99948.88;7312301;19;129695;-37
2022/01/02 00:37:15;;;;;;;19.70;3.30;;;;;;;21.59;58.02;99934.84;7313484;19;128928;-36
2022/01/02 00:39:43;;;;;;;12.38;2.47;;;;;;;21.57;58.94;99926.28;7311652;19;154647;-36
2022/01/02 00:42:17;;;;;;;17.00;3.13;;;;;;;21.54;59.27;99919.53;7312987;19;131293;-38
2022/01/02 00:45:06;;;;;;;16.20;2.95;;;;;;;21.61;59.26;99919.84;7312264;19;129441;-39
2022/01/02 00:47:52;;;;;;;13.23;2.78;;;;;;;21.61;58.87;99910.22;7315208;19;129584;-37
2022/01/02 00:50:30;;;;;;;10.82;2.13;;;;;;;21.57;59.30;99910.59;7310543;19;129040;-38
2022/01/02 00:52:58;;;;;;;16.83;2.70;;;;;;;21.55;58.72;99908.09;7313062;19;130729;-37
2022/01/02 00:55:25;;;;;;;9.95;2.05;;;;;;;21.54;58.62;99911.69;7312650;19;133387;-37
2022/01/02 00:57:58;;;;;;;15.35;3.20;;;;;;;21.58;58.65;99912.25;7315708;19;129172;-37
2022/01/02 01:00:24;;;;;;;10.32;2.03;;;;;;;21.55;58.63;99910.72;7313590;19;129675;-39
2022/01/02 01:02:55;;;;;;;7.22;2.10;;;;;;;21.62;58.37;99924.94;7314800;19;130669;-36
2022/01/02 01:05:28;;;;;;;11.68;2.15;;;;;;;21.58;58.96;99922.72;7314785;19;130572;-36
2022/01/02 01:07:56;;;;;;;15.13;2.58;;;;;;;21.48;57.84;99896.53;7315541;19;129394;-37
2022/01/02 01:10:24;;;;;;;14.75;3.00;;;;;;;21.52;58.61;99924.06;7311161;19;129946;-37
2022/01/02 01:12:55;;;;;;;17.63;3.22;;;;;;;21.44;58.97;99910.81;7312579;19;131317;-38
2022/01/02 01:15:22;;;;;;;11.73;2.42;;;;;;;21.53;58.51;99919.66;7313611;19;132122;-35
2022/01/02 01:17:48;;;;;;;;;;;;;;;21.58;59.63;99914.88;7316456;19;129859;-38
2022/01/02 01:20:14;;;;;;;15.55;2.85;;;;;;;21.54;58.31;99910.84;7313205;19;129151;-36
2022/01/02 01:22:48;;;;;;;16.23;2.75;;;;;;;21.48;59.37;99904.38;7313871;19;130967;-37
2022/01/02 01:25:17;;;;;;;14.38;2.72;;;;;;;21.57;58.35;99916.66;7311839;19;130639;-39
2022/01/02 01:27:48;;;;;;;8.45;1.90;;;;;;;21.59;58.14;99919.13;7310971;19;129057;-38
2022/01/02 01:30:16;;;;;;;12.73;2.47;;;;;;;21.56;58.67;99925.47;7309841;19;129143;-37
2022/01/02 01:32:41;;;;;;;15.00;2.47;;;;;;;21.59;58.12;99908.66;7307898;19;129736;-39
2022/01/02 01:35:08;;;;;;;14.90;2.65;;;;;;;21.59;58.37;99901.66;7309177;19;129667;-38
2022/01/02 01:37:34;;;;;;;10.98;2.33;;;;;;;21.59;58.36;99896.44;7310832;19;130170;-37
2022/01/02 01:39:59;;;;;;;13.20;2.13;;;;;;;21.58;57.70;99891.31;7310607;19;129130;-38
2022/01/02 01:42:33;;;;;;;10.73;2.15;;;;;;;21.53;58.25;99875.19;7310060;19;159310;-38
2022/01/02 01:47:46;;;;;;;12.52;2.53;;;;;;;21.50;58.37;99863.19;7311943;19;129075;-38
2022/01/02 01:50:12;;;;;;;16.98;3.10;;;;;;;21.46;58.32;99845.28;7309120;19;129042;-39
2022/01/02 01:52:37;;;;;;;6.47;1.75;;;;;;;21.58;58.72;99850.31;7309668;19;158687;-37
2022/01/02 01:55:03;;;;;;;13.83;2.43;;;;;;;21.58;57.70;99834.59;7306239;19;159491;-38
2022/01/02 01:57:29;;;;;;;11.93;2.00;;;;;;;21.59;58.32;99840.66;7312627;19;129503;-38
2022/01/02 01:59:54;;;;;;;13.90;2.55;;;;;;;21.58;58.38;99839.84;7307859;19;155179;-34
2022/01/02 02:02:22;;;;;;;14.23;2.73;;;;;;;21.55;58.24;99842.69;7309458;19;158358;-40
2022/01/02 02:04:47;;;;;;;13.45;2.55;;;;;;;21.53;57.97;99835.97;7311804;19;130055;-39
2022/01/02 02:07:14;;;;;;;8.48;1.92;;;;;;;21.55;58.18;99836.66;7310986;19;155268;-38
2022/01/02 02:10:24;;;;;;;10.15;2.20;;;;;;;21.59;57.90;99841.47;7308947;19;129459;-37
2022/01/02 02:12:28;;;;;;;8.88;1.65;;;;;;;21.55;57.86;99845.31;7310608;19;130512;-38
2022/01/02 02:14:55;;;;;;;18.80;3.20;;;;;;;21.53;58.37;99844.66;7308026;19;129489;-37
2022/01/02 02:17:20;;;;;;;9.35;1.92;;;;;;;21.58;58.76;99834.59;7311029;19;129039;-41
2022/01/02 02:19:46;;;;;;;16.50;2.90;;;;;;;21.60;57.89;99845.75;7307673;19;154280;-37
2022/01/02 02:22:12;;;;;;;14.87;2.77;;;;;;;21.55;58.11;99819.16;7309178;19;129391;-35
2022/01/02 02:24:39;;;;;;;9.33;1.90;;;;;;;21.62;57.99;99815.03;7310747;19;130503;-38
2022/01/02 02:27:05;;;;;;;24.02;3.40;;;;;;;21.58;58.43;99805.81;7310910;19;129430;-38
2022/01/02 02:29:30;;;;;;;15.30;2.70;;;;;;;21.49;58.16;99777.00;7306797;19;152890;-39
2022/01/02 02:31:56;;;;;;;19.33;3.35;;;;;;;21.57;57.92;99782.38;7306859;19;158504;-38
2022/01/02 02:34:21;;;;;;;13.05;2.05;;;;;;;21.53;58.17;99767.94;7308330;19;130723;-36
2022/01/02 02:36:46;;;;;;;13.27;2.53;;;;;;;21.57;57.89;99775.38;7310479;19;129128;-39
2022/01/02 02:39:12;;;;;;;19.60;3.27;;;;;;;21.58;57.73;99766.59;7306697;19;155567;-38
2022/01/02 02:41:39;;;;;;;39.20;6.68;;;;;;;21.58;57.57;99761.34;7306084;19;133511;-39
2022/01/02 02:44:15;;;;;;;27.35;4.97;;;;;;;21.53;58.19;99757.47;7310070;19;130522;-36
2022/01/02 02:49:24;;;;;;;9.55;1.88;;;;;;;21.56;58.49;99755.41;7311230;19;129155;-38
2022/01/02 02:51:54;;;;;;;18.33;3.17;;;;;;;21.56;58.66;99754.59;7308195;19;159084;-38
2022/01/02 02:54:27;;;;;;;14.38;2.85;;;;;;;21.53;58.69;99753.09;7306711;19;130539;-38
2022/01/02 02:56:57;;;;;;;12.00;2.22;;;;;;;21.49;57.78;99741.22;7313536;19;129811;-37
2022/01/02 02:59:28;;;;;;;13.52;2.42;;;;;;;21.56;59.20;99747.56;7308141;19;130133;-37
2022/01/02 03:01:54;;;;;;;13.75;2.60;;;;;;;21.50;58.30;99734.22;7312700;19;130203;-37
2022/01/02 03:04:20;;;;;;;15.57;2.67;;;;;;;21.52;57.95;99724.41;7311257;19;129631;-37
2022/01/02 03:06:46;;;;;;;10.80;2.47;;;;;;;21.58;58.05;99735.19;7315135;19;129348;-37
2022/01/02 03:09:12;;;;;;;21.48;3.65;;;;;;;21.58;57.86;99740.41;7315557;19;130605;-38
2022/01/02 03:11:39;;;;;;;9.27;2.00;;;;;;;21.60;57.73;99743.72;7318646;19;130332;-39
2022/01/02 03:14:07;;;;;;;24.55;4.38;;;;;;;21.54;58.07;99754.72;7316882;19;130241;-37
2022/01/02 03:16:32;;;;;;;11.90;2.25;;;;;;;21.58;58.59;99747.44;7318877;19;129939;-38
2022/01/02 03:18:58;;;;;;;13.23;2.40;;;;;;;21.58;58.37;99740.41;7318681;19;129237;-36
2022/01/02 03:21:24;;;;;;;14.47;2.50;;;;;;;21.54;58.27;99739.03;7317847;19;129161;-38
2022/01/02 03:23:49;;;;;;;15.10;2.95;;;;;;;21.54;58.55;99718.09;7317192;19;130522;-37
2022/01/02 03:26:15;;;;;;;17.83;3.05;;;;;;;21.54;58.42;99725.94;7318532;19;128881;-35
2022/01/02 03:28:41;;;;;;;21.58;3.55;;;;;;;21.54;58.07;99697.16;7317481;19;129055;-38
2022/01/02 03:31:06;;;;;;;16.55;2.75;;;;;;;21.54;58.53;99696.34;7317730;19;129716;-39
2022/01/02 03:33:32;;;;;;;11.82;2.15;;;;;;;21.53;58.03;99679.84;7318024;19;129644;-36
2022/01/02 03:35:58;;;;;;;8.32;1.58;;;;;;;21.42;58.15;99669.47;7317315;19;129651;-36
2022/01/02 03:38:23;;;;;;;14.55;2.50;;;;;;;21.47;58.40;99675.13;7315230;19;129795;-37
2022/01/02 03:40:48;;;;;;;15.93;2.72;;;;;;;21.50;58.46;99655.75;7315606;19;159469;-38
2022/01/02 03:43:14;;;;;;;13.73;2.45;;;;;;;21.49;58.33;99664.53;7316285;19;158631;-38
2022/01/02 03:45:39;;;;;;;15.65;2.45;;;;;;;21.45;58.64;99653.50;7317160;19;129303;-36
2022/01/02 03:48:04;;;;;;;15.45;2.63;;;;;;;21.55;58.26;99651.72;7315679;19;154105;-38
2022/01/02 03:50:30;;;;;;;15.32;2.50;;;;;;;21.39;57.89;99653.22;7315038;19;130123;-39
2022/01/02 03:52:55;;;;;;;19.83;3.85;;;;;;;21.34;58.75;99668.50;7314980;19;158660;-39
2022/01/02 03:55:21;;;;;;;10.38;2.00;;;;;;;21.36;59.62;99651.72;7315336;19;129267;-39
2022/01/02 03:57:46;;;;;;;8.50;2.30;;;;;;;21.23;58.07;99653.78;7313740;19;129984;-38
2022/01/02 04:00:13;;;;;;;17.02;3.38;;;;;;;21.32;58.16;99671.25;7314459;19;129599;-38
2022/01/02 04:02:39;;;;;;;18.33;3.03;;;;;;;21.45;57.60;99671.81;7316460;19;129191;-38
2022/01/02 04:05:06;;;;;;;18.48;2.83;;;;;;;21.57;57.22;99672.50;7316897;19;129468;-38
2022/01/02 04:07:32;;;;;;;13.32;2.55;;;;;;;21.69;56.75;99669.63;7317260;19;129050;-37
2022/01/02 04:10:01;;;;;;;10.23;1.75;;;;;;;21.81;56.03;99662.50;7316332;19;129464;-38
2022/01/02 04:12:26;;;;;;;10.88;2.15;;;;;;;21.91;56.25;99658.06;7316027;19;131308;-37
2022/01/02 04:14:51;;;;;;;11.88;2.03;;;;;;;21.98;56.34;99653.94;7315131;19;149189;-38
2022/01/02 04:17:17;;;;;;;11.17;2.13;;;;;;;22.09;55.95;99650.31;7316475;19;153996;-37
2022/01/02 04:19:42;;;;;;;16.73;2.95;;;;;;;22.14;56.04;99627.16;7315587;19;129431;-38
2022/01/02 04:22:07;;;;;;;9.48;2.20;;;;;;;22.26;55.11;99631.25;7314594;19;158337;-39
2022/01/02 04:24:32;;;;;;;16.50;2.63;;;;;;;22.32;54.96;99641.16;7314952;19;154601;-36
2022/01/02 04:26:58;;;;;;;9.32;1.90;;;;;;;22.33;54.83;99632.34;7316111;19;154066;-38
2022/01/02 04:29:23;;;;;;;10.90;1.92;;;;;;;22.34;54.55;99639.22;7314109;19;153162;-37
2022/01/02 04:31:48;;;;;;;15.02;2.80;;;;;;;22.38;54.79;99628.31;7314806;19;158592;-35
2022/01/02 04:34:13;;;;;;;14.77;2.58;;;;;;;22.21;54.68;99613.38;7314166;19;155120;-39
2022/01/02 04:36:39;;;;;;;15.40;2.88;;;;;;;22.26;55.42;99621.63;7315404;19;154055;-36
2022/01/02 04:39:04;;;;;;;14.00;2.42;;;;;;;22.24;55.65;99622.72;7313957;19;158973;-36
2022/01/02 04:41:30;;;;;;;10.57;2.00;;;;;;;22.20;55.56;99621.34;7315988;19;158809;-35
2022/01/02 04:43:55;;;;;;;18.90;3.75;;;;;;;22.17;55.41;99632.09;7314801;19;129029;-36
2022/01/02 04:46:20;;;;;;;13.98;2.58;;;;;;;22.10;55.30;99625.81;7315253;19;145176;-39
2022/01/02 04:48:45;;;;;;;21.90;3.22;;;;;;;22.08;56.05;99614.66;7313100;19;158054;-37
2022/01/02 04:51:11;;;;;;;20.95;3.70;;;;;;;22.02;56.23;99617.81;7313165;19;157201;-38
2022/01/02 04:53:45;;;;;;;10.77;1.98;;;;;;;21.98;55.77;99603.38;7315501;19;147488;-37
2022/01/02 04:56:10;;;;;;;16.25;3.00;;;;;;;21.91;55.98;99601.28;7315002;19;129072;-36
2022/01/02 04:58:36;;;;;;;7.75;1.65;;;;;;;21.87;56.03;99597.34;7315301;19;157815;-37
2022/01/02 05:01:01;;;;;;;12.90;2.17;;;;;;;21.86;56.76;99593.06;7313711;19;159702;-36
2022/01/02 05:03:26;;;;;;;11.05;1.92;;;;;;;21.80;56.84;99598.84;7313882;19;155043;-38
2022/01/02 05:05:51;;;;;;;26.23;4.32;;;;;;;21.76;56.69;99586.16;7313483;19;129221;-38
2022/01/02 05:08:17;;;;;;;19.20;3.33;;;;;;;21.72;57.05;99585.63;7311512;19;159584;-37
2022/01/02 05:10:42;;;;;;;12.20;2.33;;;;;;;21.74;56.69;99583.69;7312161;19;157443;-37
2022/01/02 05:13:07;;;;;;;16.23;2.65;;;;;;;21.75;56.50;99580.09;7315920;19;129734;-37
2022/01/02 05:15:32;;;;;;;11.13;1.98;;;;;;;21.75;56.44;99584.53;7311483;19;152970;-37
2022/01/02 05:17:58;;;;;;;15.55;2.28;;;;;;;21.70;56.43;99576.28;7315294;19;158502;-37
2022/01/02 05:20:23;;;;;;;11.95;2.33;;;;;;;21.67;56.87;99573.91;7310118;19;158981;-38
2022/01/02 05:22:48;;;;;;;14.88;2.83;;;;;;;21.63;57.08;99568.16;7314199;19;154769;-38
2022/01/02 05:25:13;;;;;;;18.33;2.97;;;;;;;21.62;57.01;99570.88;7315378;19;129062;-38
2022/01/02 05:27:39;;;;;;;10.90;2.20;;;;;;;21.59;56.99;99561.53;7313838;19;158484;-39
2022/01/02 05:30:04;;;;;;;22.60;4.00;;;;;;;21.60;57.33;99555.34;7311726;19;138147;-37
2022/01/02 05:32:30;;;;;;;8.55;1.60;;;;;;;21.61;57.10;99557.00;7316749;19;128984;-38
2022/01/02 05:34:55;;;;;;;21.55;3.83;;;;;;;21.50;57.65;99532.78;7310760;19;153864;-37
2022/01/02 05:37:20;;;;;;;11.25;2.03;;;;;;;21.52;57.80;99541.31;7314181;19;158636;-39
2022/01/02 05:39:45;;;;;;;13.25;2.53;;;;;;;21.60;57.70;99538.84;7313244;19;130047;-37
2022/01/02 05:42:11;;;;;;;12.55;2.08;;;;;;;21.58;57.79;99531.13;7313540;19;154366;-36
2022/01/02 05:44:36;;;;;;;12.77;2.33;;;;;;;21.55;57.74;99520.13;7313575;19;154247;-38
2022/01/02 05:47:01;;;;;;;18.92;3.00;;;;;;;21.56;57.40;99512.13;7314019;19;158424;-34
2022/01/02 05:49:26;;;;;;;14.18;2.47;;;;;;;21.61;58.23;99509.09;7313062;19;129313;-36
2022/01/02 05:51:52;;;;;;;12.50;2.30;;;;;;;21.61;57.92;99491.59;7312950;19;154680;-38
2022/01/02 05:54:17;;;;;;;10.70;2.03;;;;;;;21.49;57.65;99479.66;7312461;19;154227;-38
2022/01/02 05:56:43;;;;;;;12.45;2.45;;;;;;;21.58;57.92;99485.81;7313690;19;156224;-38
2022/01/02 05:59:08;;;;;;;23.30;3.77;;;;;;;21.52;57.52;99475.91;7312502;19;159229;-37
2022/01/02 06:01:33;;;;;;;7.50;1.40;;;;;;;21.58;57.90;99486.66;7314550;19;153876;-38
2022/01/02 06:04:00;;;;;;;15.52;3.05;;;;;;;21.55;57.70;99500.00;7313202;19;129113;-38
2022/01/02 06:06:25;;;;;;;12.40;2.35;;;;;;;21.57;58.58;99503.31;7314643;19;130195;-39
2022/01/02 06:08:51;;;;;;;14.68;2.67;;;;;;;21.55;58.30;99499.19;7312623;19;130234;-38
2022/01/02 06:11:16;;;;;;;22.13;3.50;;;;;;;21.56;58.34;99499.06;7312651;19;154972;-38
2022/01/02 06:13:42;;;;;;;13.52;2.55;;;;;;;21.57;58.27;99508.53;7312813;19;154341;-37
2022/01/02 06:16:09;;;;;;;16.42;2.75;;;;;;;21.58;58.69;99515.44;7313790;19;131407;-39
2022/01/02 06:18:35;;;;;;;12.00;2.38;;;;;;;21.58;57.91;99504.13;7312919;19;130034;-36
2022/01/02 06:21:00;;;;;;;15.43;2.50;;;;;;;21.61;57.75;99499.44;7313539;19;128705;-39
2022/01/02 06:23:25;;;;;;;12.88;2.30;;;;;;;21.61;58.13;99494.22;7312274;19;154229;-38
2022/01/02 06:25:51;;;;;;;13.00;2.53;;;;;;;21.63;58.68;99494.91;7311540;19;158422;-37
2022/01/02 06:28:16;;;;;;;20.35;3.05;;;;;;;21.61;58.19;99499.44;7312326;19;159402;-38
2022/01/02 06:30:41;;;;;;;6.43;1.60;;;;;;;21.60;58.70;99492.53;7309225;19;154555;-38
2022/01/02 06:33:06;;;;;;;19.60;3.27;;;;;;;21.65;58.59;99498.19;7311744;19;154276;-37
2022/01/02 06:35:34;;;;;;;10.15;1.70;;;;;;;21.68;57.91;99499.69;7311172;19;129064;-38
2022/01/02 06:38:08;;;;;;;6.60;1.40;;;;;;;21.65;58.42;99490.34;7314315;19;131013;-39
2022/01/02 06:40:34;;;;;;;9.65;1.75;;;;;;;21.66;58.04;99481.53;7311035;19;129071;-36
2022/01/02 06:42:59;;;;;;;10.15;1.70;;;;;;;21.68;58.36;99499.69;7314967;19;130459;-38
2022/01/02 06:45:24;;;;;;;14.10;2.10;;;;;;;21.63;58.49;99476.59;7309433;19;159097;-33
2022/01/02 06:47:49;;;;;;;16.95;2.95;;;;;;;21.70;58.19;99482.88;7307969;19;159575;-33
2022/01/02 06:50:15;;;;;;;17.27;2.55;;;;;;;21.66;57.62;99481.53;7305971;19;153871;-38
2022/01/02 06:52:40;;;;;;;11.82;2.17;;;;;;;21.67;57.64;99479.72;7310696;19;129313;-37
2022/01/02 06:55:06;;;;;;;20.20;3.50;;;;;;;21.70;57.46;99495.97;7307562;19;130875;-34
2022/01/02 06:57:31;;;;;;;14.23;2.47;;;;;;;21.53;58.47;99470.56;7310554;19;130445;-35
2022/01/02 06:59:56;;;;;;;16.20;3.22;;;;;;;21.63;58.41;99497.53;7306964;19;129059;-35
2022/01/02 07:02:22;;;;;;;35.25;6.05;;;;;;;21.64;58.13;99487.84;7306927;19;142698;-37
2022/01/02 07:04:47;;;;;;;12.77;2.33;;;;;;;21.61;57.93;99483.75;7309859;19;129122;-32
2022/01/02 07:07:12;;;;;;;17.67;3.13;;;;;;;21.60;58.56;99466.38;7308013;19;159673;-39
2022/01/02 07:09:37;;;;;;;15.27;3.25;;;;;;;21.57;58.73;99466.69;7303476;19;136895;-39
2022/01/02 07:12:03;;;;;;;14.75;2.25;;;;;;;21.59;57.94;99475.22;7309258;19;129056;-39
2022/01/02 07:14:30;;;;;;;15.93;2.40;;;;;;;21.51;57.67;99476.88;7308003;19;130242;-36
2022/01/02 07:16:57;;;;;;;26.20;4.28;;;;;;;21.44;58.18;99486.25;7306614;19;129373;-38
2022/01/02 07:19:23;;;;;;;9.18;1.50;;;;;;;21.43;58.47;99493.31;7308180;19;129057;-36
2022/01/02 07:21:49;;;;;;;13.88;2.60;;;;;;;21.43;58.31;99490.69;7307995;19;129131;-35
2022/01/02 07:24:15;;;;;;;16.48;2.65;;;;;;;21.44;58.21;99486.25;7307838;19;129317;-32
2022/01/02 07:26:40;;;;;;;11.55;2.42;;;;;;;21.45;57.98;99457.34;7308503;19;129148;-38
2022/01/02 07:29:06;;;;;;;17.95;2.80;;;;;;;21.45;57.70;99457.34;7305712;19;130074;-30
2022/01/02 07:31:31;;;;;;;18.60;3.03;;;;;;;21.46;58.71;99469.47;7306151;19;150817;-34
2022/01/02 07:33:56;;;;;;;31.10;5.43;;;;;;;21.37;57.90;99469.50;7302369;19;158378;-38
2022/01/02 07:36:21;;;;;;;13.23;2.10;;;;;;;21.38;58.70;99477.22;7306873;19;156214;-36
2022/01/02 07:38:47;;;;;;;14.98;2.65;;;;;;;21.38;57.68;99485.06;7305033;19;155407;-36
2022/01/02 07:41:12;;;;;;;18.90;3.00;;;;;;;21.36;58.59;99489.59;7306603;19;154038;-34
2022/01/02 07:43:37;;;;;;;14.23;2.67;;;;;;;21.41;58.84;99497.00;7306404;19;159124;-39
2022/01/02 07:46:02;;;;;;;11.70;2.05;;;;;;;21.41;57.63;99490.00;7303116;19;129128;-39
2022/01/02 07:48:28;;;;;;;10.07;1.60;;;;;;;21.42;58.10;99496.88;7305953;19;154505;-35
2022/01/02 07:50:53;;;;;;;15.32;2.67;;;;;;;21.40;57.76;99500.59;7306606;19;133914;-34
2022/01/02 07:53:18;;;;;;;12.23;2.15;;;;;;;21.41;57.92;99508.31;7310794;19;158510;-33
2022/01/02 07:55:44;;;;;;;23.45;3.30;;;;;;;21.40;57.97;99496.16;7311531;19;129750;-33
2022/01/02 07:58:10;;;;;;;18.77;2.97;;;;;;;21.42;57.81;99496.88;7313915;19;154402;-35
2022/01/02 08:00:35;;;;;;;11.67;2.03;;;;;;;21.42;57.96;99502.09;7312825;19;129188;-41
2022/01/02 08:03:00;;;;;;;10.18;1.88;;;;;;;21.38;57.77;99498.13;7315058;19;129283;-34
2022/01/02 08:05:26;;;;;;;17.08;2.63;;;;;;;21.31;57.51;99489.19;7308949;19;158749;-34
2022/01/02 08:07:51;;;;;;;19.25;2.92;;;;;;;21.37;57.75;99504.31;7314966;19;143364;-33
2022/01/02 08:10:16;;;;;;;10.10;2.08;;;;;;;21.40;57.74;99500.59;7312175;19;129080;-33
2022/01/02 08:12:42;;;;;;;16.52;2.70;;;;;;;21.42;58.29;99504.72;7314462;19;129612;-38
2022/01/02 08:15:08;;;;;;;22.13;3.50;;;;;;;21.38;57.80;99497.28;7310166;19;158355;-35
2022/01/02 08:17:34;;;;;;;20.13;2.85;;;;;;;21.32;55.96;99482.19;7313599;19;130100;-38
2022/01/02 08:19:59;;;;;;;26.77;4.07;;;;;;;21.32;54.75;99477.75;7309330;19;129734;-35
2022/01/02 08:22:24;;;;;;;20.17;3.22;;;;;;;21.34;55.19;99488.91;7315297;19;131684;-35
2022/01/02 08:24:50;;;;;;;21.40;3.85;;;;;;;21.21;55.33;99467.47;7311076;19;130865;-39
2022/01/02 08:27:15;;;;;;;19.75;3.83;;;;;;;21.28;56.16;99463.31;7312639;19;154667;-33
2022/01/02 08:29:40;;;;;;;19.90;3.90;;;;;;;21.33;56.57;99474.19;7310299;19;154883;-40
2022/01/02 08:32:05;;;;;;;20.80;3.92;;;;;;;21.35;56.31;99472.25;7311549;19;158287;-33
2022/01/02 08:34:31;;;;;;;14.13;2.95;;;;;;;21.34;56.39;99475.00;7312084;19;158398;-37
2022/01/02 08:36:56;;;;;;;15.85;2.83;;;;;;;21.39;56.47;99478.00;7312085;19;153501;-39
2022/01/02 08:39:21;;;;;;;11.52;2.28;;;;;;;21.37;56.76;99469.50;7311751;19;153684;-34
2022/01/02 08:41:46;;;;;;;19.80;4.07;;;;;;;21.36;56.56;99468.66;7312942;19;157905;-38
2022/01/02 08:44:12;;;;;;;22.65;3.63;;;;;;;21.34;56.86;99454.06;7313693;19;129501;-40
2022/01/02 08:46:37;;;;;;;21.80;3.92;;;;;;;21.42;57.62;99468.09;7312476;19;129635;-41
2022/01/02 08:49:03;;;;;;;20.58;3.58;;;;;;;21.42;57.39;99467.28;7310088;19;129330;-37
2022/01/02 08:51:29;;;;;;;15.98;3.03;;;;;;;21.43;57.05;99463.69;7310499;19;158606;-39
2022/01/02 08:53:55;;;;;;;26.75;5.03;;;;;;;21.32;57.22;99462.06;7312587;19;129648;-39
2022/01/02 08:56:20;;;;;;;7.40;1.88;;;;;;;21.40;57.30;99477.88;7306726;19;129420;-38
2022/01/02 08:58:45;;;;;;;23.08;3.90;;;;;;;21.42;57.09;99477.75;7309344;19;153561;-38
2022/01/02 09:01:11;;;;;;;24.23;4.33;;;;;;;21.43;56.92;99480.22;7309731;19;158304;-39
2022/01/02 09:03:36;;;;;;;14.63;2.92;;;;;;;21.48;57.24;99478.00;7308195;19;158337;-34
2022/01/02 09:06:01;;;;;;;24.05;3.97;;;;;;;21.48;57.93;99461.47;7309323;19;154455;-38
2022/01/02 09:08:27;;;;;;;18.67;2.90;;;;;;;21.44;57.79;99468.78;7311150;19;128847;-37
2022/01/02 09:10:52;;;;;;;18.30;3.55;;;;;;;21.43;57.33;99477.59;7310171;19;139945;-31
2022/01/02 09:13:17;;;;;;;24.70;4.57;;;;;;;21.45;57.77;99475.66;7306363;19;129535;-38
2022/01/02 09:15:43;;;;;;;25.27;4.75;;;;;;;21.43;56.85;99469.75;7310239;19;129665;-35
2022/01/02 09:18:08;;;;;;;31.10;5.18;;;;;;;21.44;56.92;99474.00;7307159;19;155387;-34
2022/01/02 09:20:34;;;;;;;11.65;2.65;;;;;;;21.44;57.27;99475.78;7307378;19;130894;-36
2022/01/02 09:22:59;;;;;;;19.92;3.53;;;;;;;21.46;56.96;99479.09;7304125;19;132274;-37
2022/01/02 09:25:25;;;;;;;10.30;2.15;;;;;;;21.47;58.22;99465.06;7308146;19;153765;-34
2022/01/02 09:27:50;;;;;;;30.67;5.13;;;;;;;21.42;57.70;99459.44;7308786;19;130651;-35
2022/01/02 09:30:15;;;;;;;27.25;4.80;;;;;;;21.43;57.78;99467.16;7306666;19;130191;-34
2022/01/02 09:32:41;;;;;;;15.43;3.08;;;;;;;21.41;57.32;99450.75;7309205;19;134396;-36
2022/01/02 09:35:09;;;;;;;23.80;3.85;;;;;;;21.42;57.46;99446.38;7307391;19;137522;-35
2022/01/02 09:37:34;;;;;;;17.52;3.20;;;;;;;21.45;57.31;99446.88;7310725;19;129943;-37
2022/01/02 09:40:01;;;;;;;12.65;2.45;;;;;;;21.50;57.89;99444.66;7303459;19;129624;-36
2022/01/02 09:42:27;;;;;;;16.65;2.92;;;;;;;21.37;57.73;99433.69;7309987;19;130860;-34
2022/01/02 09:44:52;;;;;;;29.48;5.28;;;;;;;21.37;56.75;99449.38;7305004;19;155427;-38
2022/01/02 09:47:20;;;;;;;19.13;3.72;;;;;;;21.36;56.50;99457.38;7308033;19;154901;-34
2022/01/02 09:49:47;;;;;;;16.88;3.90;;;;;;;21.38;59.10;99442.38;7307435;19;130324;-34
2022/01/02 09:52:12;;;;;;;16.38;3.38;;;;;;;21.38;56.97;99445.00;7309555;19;132681;-34
2022/01/02 09:54:37;;;;;;;15.50;2.92;;;;;;;21.42;58.15;99452.41;7309254;19;130965;-34
2022/01/02 09:57:03;;;;;;;9.52;2.38;;;;;;;21.39;57.02;99442.22;7310388;19;131283;-41
2022/01/02 09:59:28;;;;;;;24.00;4.38;;;;;;;21.36;57.77;99441.69;7306841;19;130226;-33
2022/01/02 10:01:54;;;;;;;13.85;3.15;;;;;;;21.37;57.42;99444.16;7308378;19;129561;-34
2022/01/02 10:04:40;;;;;;;22.23;3.88;;;;;;;21.41;59.48;99450.75;7308701;19;129318;-34
2022/01/02 10:07:31;;;;;;;17.55;3.35;;;;;;;21.34;58.22;99425.31;7309397;19;129551;-32
2022/01/02 10:09:57;;;;;;;24.48;4.53;;;;;;;21.38;57.52;99439.75;7306806;19;130129;-34
2022/01/02 10:12:28;;;;;;;23.37;3.77;;;;;;;21.40;58.49;99436.03;7309881;19;130387;-34
2022/01/02 10:15:23;;;;;;;22.48;4.35;;;;;;;21.38;57.68;99442.38;7306829;19;128971;-35
2022/01/02 10:18:02;;;;;;;17.98;3.85;;;;;;;21.38;57.10;99434.53;7308709;19;129303;-30
2022/01/02 10:20:36;;;;;;;27.35;4.75;;;;;;;21.32;57.64;99417.59;7302257;19;130439;-37
2022/01/02 10:23:12;;;;;;;19.63;3.65;;;;;;;21.31;57.41;99417.75;7306889;19;130415;-39
2022/01/02 10:25:50;;;;;;;22.77;3.97;;;;;;;21.22;57.49;99411.56;7307970;19;129060;-34
2022/01/02 10:28:38;;;;;;;25.90;4.32;;;;;;;21.29;57.73;99410.06;7308007;19;130019;-39
2022/01/02 10:31:14;;;;;;;18.30;3.53;;;;;;;21.28;58.07;99397.94;7307060;19;129203;-40
2022/01/02 10:33:57;;;;;;;17.63;3.22;;;;;;;21.31;58.52;99402.91;7308245;19;130401;-44
2022/01/02 10:36:25;;;;;;;23.58;3.90;;;;;;;21.31;57.16;99392.44;7305719;19;129861;-30
2022/01/02 10:39:06;;;;;;;23.70;3.92;;;;;;;21.31;58.23;99384.59;7308738;19;129736;-32
2022/01/02 10:41:44;;;;;;;17.40;3.30;;;;;;;21.30;57.20;99372.50;7306811;19;130439;-31
2022/01/02 10:44:26;;;;;;;16.77;3.60;;;;;;;21.34;58.75;99371.22;7307423;19;131290;-38
2022/01/02 10:47:14;;;;;;;15.90;3.20;;;;;;;21.36;58.82;99364.06;7306898;19;129177;-39
2022/01/02 10:50:08;;;;;;;20.52;4.30;;;;;;;21.36;59.83;99348.38;7304076;19;129790;-40
2022/01/02 10:52:45;;;;;;;16.63;3.15;;;;;;;21.39;58.80;99348.09;7306004;19;130614;-36
2022/01/02 10:55:26;;;;;;;21.07;3.90;;;;;;;21.40;57.97;99341.06;7303913;19;130999;-37
2022/01/02 10:57:57;;;;;;;21.15;4.30;;;;;;;21.33;57.39;99335.59;7306058;19;129426;-39
2022/01/02 11:00:26;;;;;;;13.90;3.00;;;;;;;21.34;57.89;99332.00;7302397;19;129814;-38
2022/01/02 11:02:51;;;;;;;16.98;3.42;;;;;;;21.34;57.89;99323.31;7306663;19;130790;-38
2022/01/02 11:05:19;;;;;;;21.48;3.85;;;;;;;21.34;57.17;99316.31;7305252;19;130380;-38
2022/01/02 11:07:50;;;;;;;16.75;3.47;;;;;;;21.35;57.95;99320.59;7307945;19;129146;-39
2022/01/02 11:10:23;;;;;;;29.90;5.20;;;;;;;21.31;57.84;99307.94;7303587;19;129510;-39
2022/01/02 11:12:50;;;;;;;19.42;3.97;;;;;;;21.31;57.40;99298.31;7305517;19;131336;-38
2022/01/02 11:15:18;;;;;;;18.48;3.53;;;;;;;21.33;57.80;99295.53;7303582;19;129680;-40
2022/01/02 11:17:43;;;;;;;18.58;3.65;;;;;;;21.28;57.35;99282.91;7306368;19;129562;-32
2022/01/02 11:20:11;;;;;;;13.75;3.05;;;;;;;21.31;57.13;99287.84;7301605;19;138168;-30
2022/01/02 11:23:07;;;;;;;20.33;3.55;;;;;;;21.31;57.23;99287.84;7305940;19;130685;-34
2022/01/02 11:25:50;;;;;;;17.67;3.28;;;;;;;21.31;57.81;99266.94;7304830;19;130438;-37